Portersville, Indiana
Current Conditions -  °F | °C
As of 10:55 AM on Wednesday 22 Oct 2014 (Local Time) from KHNB Reporting Station
Clear Clear  
Wind Chill: 12°   Ceiling: Unl
Heat Index: 12°   Visibility: 10mi
Dew Point:   Wind: 9mph
Humidity: 62%   Direction: 110°ESE
Pressure: 30.33"   Gusts: NA
Location:  38.4175°N, 86.9656°W
Report Text: KHNB 221555Z AUTO 11008KT 10SM CLR 12/05 A3033 RMK AO1
Loading
Personal Weather Stations






























Interactive Weather Map
Tropical Storm Tracking
New forecast layout! Learn more

10-Day Weather Forecast

Advertisements
Track Severe Weather on mobile